LZKZ/KSC METAR and TAF weather

Enter ICAO airport designator
Station Type Date Time Source
LZKZ METAR 2018/12/13 09:00 UTC NOAA

LZKZ 130900Z 02005KT CAVOK 01/M04 Q1020 NOSIG


Station Type Date Time Source
LZKZ Decoded METAR 2018/12/13 09:00 UTC NOAA

Kosice, Barca, Slovakia (LZKZ) 48-39-47N 021-14-28E
Dec 13, 2018 - 04:00 AM EST / 2018.12.13 0900 UTC
Wind: from the NNE (020 degrees) at 6 MPH (5 KT):0
Visibility: greater than 7 mile(s):0
Temperature: 33 F (1 C)
Windchill: 26 F (-3 C):1
Dew Point: 24 F (-4 C)
Relative Humidity: 69%
Pressure (altimeter): 30.12 in. Hg (1020 hPa)
ob: LZKZ 130900Z 02005KT CAVOK 01/M04 Q1020 NOSIG
cycle: 9

Station Type Date Time Source
LZKZ TAF 2018/12/13 06:00 UTC NOAA

TAF LZKZ 130500Z 1306/1406 VRB02KT CAVOK
BECMG 1307/1309 24004KT 9999 SCT023
BECMG 1314/1316 35004KT CAVOK


Example: see airport list